createdAt,value
2023-02-24T00:01:24.753Z,100748.38
2023-02-24T00:03:59.380Z,100744.13
2023-02-24T00:06:35.885Z,100737.28
2023-02-24T00:09:09.892Z,100733.31
2023-02-24T00:12:01.256Z,100720.06
2023-02-24T00:14:33.578Z,100718.44
2023-02-24T00:17:00.404Z,100710.63
2023-02-24T00:19:29.141Z,100707.34
2023-02-24T00:21:55.543Z,100708.69
2023-02-24T00:24:22.676Z,100704.59
2023-02-24T00:26:57.227Z,100704.09
2023-02-24T00:29:26.819Z,100698.66
2023-02-24T00:32:01.278Z,100698.34
2023-02-24T00:34:33.729Z,100699.88
2023-02-24T00:37:00.010Z,100695.16
2023-02-24T00:39:34.702Z,100686.13
2023-02-24T00:42:05.680Z,100685.38
2023-02-24T00:44:37.714Z,100684.91
2023-02-24T00:47:06.303Z,100689.84
2023-02-24T00:49:33.544Z,100686.13
2023-02-24T00:52:00.233Z,100683.00
2023-02-24T00:54:28.217Z,100675.34
2023-02-24T00:56:55.336Z,100676.84
2023-02-24T00:59:23.887Z,100675.28
2023-02-24T01:01:50.951Z,100677.34
2023-02-24T01:04:18.960Z,100680.38
2023-02-24T01:06:48.974Z,100673.53
2023-02-24T01:09:18.085Z,100675.97
2023-02-24T01:12:04.686Z,100685.00
2023-02-24T01:14:33.327Z,100672.13
2023-02-24T01:17:00.324Z,100684.63
2023-02-24T01:19:31.357Z,100677.34
2023-02-24T01:21:58.733Z,100673.50
2023-02-24T01:24:25.554Z,100673.97
2023-02-24T01:26:52.064Z,100661.41
2023-02-24T01:29:18.819Z,100668.38
2023-02-24T01:31:47.312Z,100656.63
2023-02-24T01:34:14.989Z,100658.38
2023-02-24T01:36:45.050Z,100660.00
2023-02-24T01:39:13.337Z,100658.44
2023-02-24T01:41:43.726Z,100655.09
2023-02-24T01:44:22.295Z,100656.34
2023-02-24T01:46:51.368Z,100653.00
2023-02-24T01:49:33.968Z,100651.03
2023-02-24T01:52:05.814Z,100642.75
2023-02-24T01:54:35.775Z,100640.66
2023-02-24T01:57:05.659Z,100634.31
2023-02-24T01:59:35.370Z,100633.09
2023-02-24T02:02:05.065Z,100635.19
2023-02-24T02:04:36.390Z,100624.94
2023-02-24T02:07:02.761Z,100623.63
2023-02-24T02:09:29.698Z,100617.66
2023-02-24T02:11:56.069Z,100608.63
2023-02-24T02:14:25.808Z,100607.47
2023-02-24T02:17:23.096Z,100591.75
2023-02-24T02:20:07.518Z,100590.16
2023-02-24T02:22:52.227Z,100588.16
2023-02-24T02:25:55.947Z,100585.53
2023-02-24T02:28:31.738Z,100566.81
2023-02-24T02:31:20.435Z,100572.25
2023-02-24T02:34:08.551Z,100572.00
2023-02-24T02:36:49.992Z,100568.47
2023-02-24T02:39:22.021Z,100567.66
2023-02-24T02:42:04.615Z,100564.44
2023-02-24T02:44:39.832Z,100556.88
2023-02-24T02:47:29.055Z,100555.91
2023-02-24T02:50:00.688Z,100557.81
2023-02-24T02:52:39.122Z,100554.88
2023-02-24T02:55:19.484Z,100541.06
2023-02-24T02:57:47.855Z,100537.81
2023-02-24T03:00:21.390Z,100535.19
2023-02-24T03:02:51.218Z,100537.75
2023-02-24T03:05:20.291Z,100538.34
2023-02-24T03:07:51.093Z,100527.56
2023-02-24T03:10:24.378Z,100527.84
2023-02-24T03:12:52.784Z,100529.72
2023-02-24T03:15:23.530Z,100520.34
2023-02-24T03:17:55.617Z,100517.31
2023-02-24T03:20:35.542Z,100506.41
2023-02-24T03:23:09.429Z,100510.16
2023-02-24T03:25:46.667Z,100509.69
2023-02-24T03:28:22.750Z,100511.81
2023-02-24T03:31:03.572Z,100512.00
2023-02-24T03:33:37.612Z,100507.53
2023-02-24T03:36:05.471Z,100501.97
2023-02-24T03:38:33.361Z,100500.16
2023-02-24T03:40:59.897Z,100499.84
2023-02-24T03:43:32.458Z,100488.53
2023-02-24T03:45:59.385Z,100485.22
2023-02-24T03:48:27.487Z,100484.00
2023-02-24T03:50:54.144Z,100483.41
2023-02-24T03:54:08.986Z,100481.06
2023-02-24T03:57:05.620Z,100487.78
2023-02-24T03:59:53.565Z,100482.63
2023-02-24T04:02:30.378Z,100475.88
2023-02-24T04:05:05.470Z,100478.91
2023-02-24T04:07:40.385Z,100481.63
2023-02-24T04:10:12.731Z,100484.19
2023-02-24T04:12:46.860Z,100488.84
2023-02-24T04:15:20.321Z,100480.84
2023-02-24T04:17:54.110Z,100479.22
2023-02-24T04:20:23.062Z,100480.59
2023-02-24T04:22:52.556Z,100476.50
2023-02-24T04:25:24.432Z,100477.72
2023-02-24T04:27:55.922Z,100475.31
2023-02-24T04:30:25.282Z,100469.22
2023-02-24T04:32:51.848Z,100464.28
2023-02-24T04:35:20.820Z,100459.25
2023-02-24T04:37:47.203Z,100457.69
2023-02-24T04:40:18.731Z,100460.53
2023-02-24T04:42:48.912Z,100451.69
2023-02-24T04:45:17.155Z,100450.47
2023-02-24T04:47:51.216Z,100451.69
2023-02-24T04:50:25.565Z,100446.97
2023-02-24T04:52:54.194Z,100444.53
2023-02-24T04:55:23.266Z,100431.34
2023-02-24T04:57:52.754Z,100441.16
2023-02-24T05:00:33.464Z,100437.66
2023-02-24T05:03:03.326Z,100427.75
2023-02-24T05:05:33.082Z,100429.22
2023-02-24T05:08:04.811Z,100430.38
2023-02-24T05:10:36.692Z,100432.56
2023-02-24T05:13:03.534Z,100430.38
2023-02-24T05:15:33.304Z,100423.75
2023-02-24T05:18:07.709Z,100421.94
2023-02-24T05:21:02.130Z,100432.88
2023-02-24T05:23:34.192Z,100420.34
2023-02-24T05:26:02.162Z,100418.06
2023-02-24T05:28:31.537Z,100420.63
2023-02-24T05:31:06.151Z,100415.03
2023-02-24T05:33:32.586Z,100402.38
2023-02-24T05:36:05.675Z,100406.63
2023-02-24T05:38:32.446Z,100400.91
2023-02-24T05:41:05.227Z,100402.41
2023-02-24T05:43:31.592Z,100391.81
2023-02-24T05:46:03.855Z,100391.19
2023-02-24T05:48:34.953Z,100377.81
2023-02-24T05:51:07.854Z,100371.56
2023-02-24T05:53:35.102Z,100370.13
2023-02-24T05:56:02.164Z,100373.88
2023-02-24T05:58:29.084Z,100363.03
2023-02-24T06:00:56.196Z,100365.75
2023-02-24T06:03:30.832Z,100359.31
2023-02-24T06:05:59.224Z,100353.28
2023-02-24T06:08:26.134Z,100362.66
2023-02-24T06:10:52.887Z,100344.47
2023-02-24T06:13:19.254Z,100351.66
2023-02-24T06:15:50.337Z,100339.84
2023-02-24T06:18:17.436Z,100343.00
2023-02-24T06:20:51.018Z,100343.91
2023-02-24T06:23:17.905Z,100341.00
2023-02-24T06:25:44.700Z,100338.44
2023-02-24T06:28:11.447Z,100327.44
2023-02-24T06:30:37.924Z,100332.84
2023-02-24T06:33:05.819Z,100323.19
2023-02-24T06:35:35.042Z,100318.19
2023-02-24T06:38:01.451Z,100318.69
2023-02-24T06:40:27.805Z,100314.16
2023-02-24T06:42:54.194Z,100312.50
2023-02-24T06:45:21.223Z,100307.66
2023-02-24T06:47:48.843Z,100312.03
2023-02-24T06:50:20.009Z,100307.84
2023-02-24T06:52:47.662Z,100304.19
2023-02-24T06:55:26.134Z,100305.34
2023-02-24T06:57:57.277Z,100308.25
2023-02-24T07:00:37.245Z,100305.94
2023-02-24T07:03:14.635Z,100310.78
2023-02-24T07:05:50.331Z,100297.38
2023-02-24T07:08:18.150Z,100294.22
2023-02-24T07:10:45.055Z,100300.97
2023-02-24T07:13:13.417Z,100301.22
2023-02-24T07:15:39.804Z,100293.72
2023-02-24T07:18:14.647Z,100296.56
2023-02-24T07:20:45.594Z,100292.41
2023-02-24T07:23:16.541Z,100289.56
2023-02-24T07:25:46.141Z,100281.22
2023-02-24T07:28:13.857Z,100278.25
2023-02-24T07:30:41.198Z,100273.59
2023-02-24T07:33:08.542Z,100273.47
2023-02-24T07:35:41.436Z,100267.75
2023-02-24T07:38:08.047Z,100265.38
2023-02-24T07:40:34.476Z,100258.97
2023-02-24T07:43:01.422Z,100256.19
2023-02-24T07:45:29.563Z,100249.47
2023-02-24T07:47:56.546Z,100251.19
2023-02-24T07:50:23.681Z,100242.75
2023-02-24T07:52:50.414Z,100240.94
2023-02-24T07:55:16.988Z,100234.97
2023-02-24T07:57:46.512Z,100226.53
2023-02-24T08:00:18.754Z,100216.44
2023-02-24T08:02:45.881Z,100218.53
2023-02-24T08:05:12.355Z,100216.09
2023-02-24T08:07:40.108Z,100210.19
2023-02-24T08:10:13.744Z,100212.19
2023-02-24T08:12:44.208Z,100204.22
2023-02-24T08:15:17.729Z,100203.38
2023-02-24T08:17:44.718Z,100192.56
2023-02-24T08:20:14.418Z,100190.97
2023-02-24T08:22:46.905Z,100188.38
2023-02-24T08:25:18.180Z,100184.09
2023-02-24T08:28:06.435Z,100186.91
2023-02-24T08:30:38.690Z,100184.00
2023-02-24T08:33:11.628Z,100181.34
2023-02-24T08:35:44.265Z,100178.13
2023-02-24T08:38:14.542Z,100173.00
2023-02-24T08:40:53.599Z,100176.53
2023-02-24T08:43:29.118Z,100164.22
2023-02-24T08:46:03.692Z,100156.94
2023-02-24T08:48:37.278Z,100157.19
2023-02-24T08:51:23.647Z,100154.31
2023-02-24T08:53:55.000Z,100146.19
2023-02-24T08:56:25.263Z,100147.03
2023-02-24T08:58:58.261Z,100129.09
2023-02-24T09:01:34.561Z,100133.75
2023-02-24T09:04:12.536Z,100132.34
2023-02-24T09:06:45.464Z,100131.75
2023-02-24T09:09:17.746Z,100123.03
2023-02-24T09:11:46.552Z,100124.03
2023-02-24T09:14:26.080Z,100132.50
2023-02-24T09:17:02.911Z,100123.34
2023-02-24T09:19:40.693Z,100125.91
2023-02-24T09:22:21.140Z,100117.00
2023-02-24T09:24:50.912Z,100119.19
2023-02-24T09:27:17.488Z,100112.81
2023-02-24T09:29:49.219Z,100113.66
2023-02-24T09:32:16.238Z,100090.28
2023-02-24T09:34:44.002Z,100091.09
2023-02-24T09:37:24.875Z,100076.09
2023-02-24T09:39:58.238Z,100085.66
2023-02-24T09:42:27.190Z,100079.56
2023-02-24T09:45:01.652Z,100075.56
2023-02-24T09:47:56.683Z,100077.75
2023-02-24T09:50:48.283Z,100071.44
2023-02-24T09:53:17.214Z,100063.13
2023-02-24T09:56:06.455Z,100064.59
2023-02-24T09:58:47.588Z,100070.13
2023-02-24T10:01:49.462Z,100066.78
2023-02-24T10:04:49.273Z,100057.22
2023-02-24T10:07:20.286Z,100055.56
2023-02-24T10:09:50.961Z,100052.03
2023-02-24T10:12:17.649Z,100052.66
2023-02-24T10:15:20.871Z,100044.91
2023-02-24T10:17:55.252Z,100044.97
2023-02-24T10:20:45.567Z,100038.69
2023-02-24T10:23:46.607Z,100037.78
2023-02-24T10:26:31.881Z,100030.09
2023-02-24T10:29:22.598Z,100021.84
2023-02-24T10:31:57.772Z,100012.81
2023-02-24T10:34:31.688Z,100023.66
2023-02-24T10:37:01.683Z,100015.97
2023-02-24T10:39:33.159Z,100002.84
2023-02-24T10:42:17.452Z,100009.19
2023-02-24T10:45:01.428Z,99999.78
2023-02-24T10:47:33.188Z,100000.75
2023-02-24T10:50:01.834Z,99996.72
2023-02-24T10:52:55.796Z,99979.13
2023-02-24T10:55:42.907Z,99975.06
2023-02-24T10:58:44.437Z,99975.00
2023-02-24T11:01:21.182Z,99970.94
2023-02-24T11:04:01.394Z,99962.44
2023-02-24T11:06:41.396Z,99957.09
2023-02-24T11:09:29.070Z,99950.63
2023-02-24T11:12:15.862Z,99953.63
2023-02-24T11:15:12.532Z,99959.09
2023-02-24T11:17:50.779Z,99952.94
2023-02-24T11:20:39.044Z,99937.38
2023-02-24T11:23:16.457Z,99941.28
2023-02-24T11:25:47.212Z,99931.53
2023-02-24T11:28:22.571Z,99928.66
2023-02-24T11:30:56.249Z,99915.91
2023-02-24T11:34:01.442Z,99915.06
2023-02-24T11:36:30.872Z,99908.78
2023-02-24T11:39:20.086Z,99909.59
2023-02-24T11:41:52.893Z,99910.53
2023-02-24T11:45:14.943Z,99894.72
2023-02-24T11:47:44.926Z,99896.44
2023-02-24T11:50:36.902Z,99889.69
2023-02-24T11:53:10.206Z,99881.41
2023-02-24T11:55:46.843Z,99877.34
2023-02-24T11:58:33.194Z,99880.53
2023-02-24T12:01:06.737Z,99873.28
2023-02-24T12:03:39.750Z,99868.69
2023-02-24T12:06:20.470Z,99869.72
2023-02-24T12:08:52.559Z,99863.03
2023-02-24T12:11:28.238Z,99855.56
2023-02-24T12:14:21.448Z,99858.09
2023-02-24T12:16:53.263Z,99832.59
2023-02-24T12:19:24.242Z,99836.09
2023-02-24T12:22:00.105Z,99832.00
2023-02-24T12:24:26.518Z,99829.91
2023-02-24T12:27:22.099Z,99827.41
2023-02-24T12:30:22.627Z,99833.88
2023-02-24T12:32:59.433Z,99833.75
2023-02-24T12:35:41.409Z,99828.47
2023-02-24T12:38:49.347Z,99818.03
2023-02-24T12:41:34.503Z,99809.22
2023-02-24T12:44:31.397Z,99798.56
2023-02-24T12:47:25.815Z,99801.06
2023-02-24T12:50:07.394Z,99798.28
2023-02-24T12:52:46.333Z,99786.28
2023-02-24T12:55:17.711Z,99784.44
2023-02-24T12:57:51.318Z,99785.56
2023-02-24T13:00:48.018Z,99774.81
2023-02-24T13:03:22.187Z,99778.34
2023-02-24T13:05:53.689Z,99771.50
2023-02-24T13:08:38.433Z,99763.25
2023-02-24T13:11:15.501Z,99760.19
2023-02-24T13:13:51.650Z,99765.13
2023-02-24T13:16:36.787Z,99765.13
2023-02-24T13:19:06.248Z,99752.38
2023-02-24T13:21:33.851Z,99751.53
2023-02-24T13:24:01.881Z,99751.09
2023-02-24T13:26:30.744Z,99741.69
2023-02-24T13:29:12.138Z,99751.66
2023-02-24T13:31:44.161Z,99740.78
2023-02-24T13:34:32.656Z,99740.50
2023-02-24T13:36:59.665Z,99748.41
2023-02-24T13:39:35.072Z,99740.31
2023-02-24T13:42:05.320Z,99732.81
2023-02-24T13:44:32.642Z,99738.44
2023-02-24T13:47:26.722Z,99724.38
2023-02-24T13:49:56.286Z,99722.47
2023-02-24T13:52:34.402Z,99726.03
2023-02-24T13:55:12.742Z,99727.31
2023-02-24T13:58:05.533Z,99720.91
2023-02-24T14:00:50.862Z,99719.28
2023-02-24T14:03:22.382Z,99717.66
2023-02-24T14:05:50.110Z,99714.59
2023-02-24T14:08:26.331Z,99718.53
2023-02-24T14:10:55.554Z,99712.03
2023-02-24T14:13:29.896Z,99721.00
2023-02-24T14:15:57.795Z,99716.91
2023-02-24T14:18:27.341Z,99722.81
2023-02-24T14:20:55.603Z,99712.06
2023-02-24T14:23:25.386Z,99713.47
2023-02-24T14:25:57.366Z,99702.47
2023-02-24T14:28:27.312Z,99703.25
2023-02-24T14:30:58.173Z,99700.81
2023-02-24T14:33:30.723Z,99706.22
2023-02-24T14:35:57.607Z,99704.91
2023-02-24T14:38:29.958Z,99690.88
2023-02-24T14:40:56.835Z,99690.84
2023-02-24T14:43:23.532Z,99682.66
2023-02-24T14:45:51.127Z,99686.63
2023-02-24T14:48:29.332Z,99683.91
2023-02-24T14:51:06.260Z,99681.91
2023-02-24T14:53:36.602Z,99673.56
2023-02-24T14:56:06.114Z,99667.16
2023-02-24T14:58:45.986Z,99666.94
2023-02-24T15:01:19.708Z,99659.47
2023-02-24T15:03:51.132Z,99646.78
2023-02-24T15:06:25.214Z,99645.47
2023-02-24T15:09:00.763Z,99651.25
2023-02-24T15:11:29.577Z,99653.38
2023-02-24T15:13:58.675Z,99650.75
2023-02-24T15:16:43.905Z,99643.19
2023-02-24T15:19:32.372Z,99629.19
2023-02-24T15:21:58.884Z,99627.53
2023-02-24T15:24:33.983Z,99624.66
2023-02-24T15:27:02.733Z,99620.34
2023-02-24T15:29:31.063Z,99606.84
2023-02-24T15:31:59.948Z,99599.31
2023-02-24T15:34:31.515Z,99601.47
2023-02-24T15:37:01.173Z,99598.09
2023-02-24T15:39:31.112Z,99586.69
2023-02-24T15:42:28.957Z,99593.16
2023-02-24T15:45:05.992Z,99595.41
2023-02-24T15:47:45.877Z,99584.84
2023-02-24T15:50:12.944Z,99586.13
2023-02-24T15:52:40.484Z,99574.38
2023-02-24T15:55:07.311Z,99574.69
2023-02-24T15:57:33.958Z,99579.41
2023-02-24T16:00:00.402Z,99573.53
2023-02-24T16:02:29.390Z,99575.84
2023-02-24T16:04:55.773Z,99575.84
2023-02-24T16:07:24.455Z,99587.72
2023-02-24T16:09:52.527Z,99584.91
2023-02-24T16:12:23.038Z,99600.03
2023-02-24T16:15:02.046Z,99596.13
2023-02-24T16:17:41.676Z,99603.63
2023-02-24T16:20:15.011Z,99609.88
2023-02-24T16:22:41.431Z,99623.03
2023-02-24T16:25:08.103Z,99609.78
2023-02-24T16:27:34.565Z,99611.94
2023-02-24T16:30:01.241Z,99596.69
2023-02-24T16:32:27.884Z,99577.44
2023-02-24T16:34:54.648Z,99570.81
2023-02-24T16:37:29.484Z,99575.22
2023-02-24T16:39:56.251Z,99565.53
2023-02-24T16:42:22.929Z,99565.69
2023-02-24T16:44:49.490Z,99567.41
2023-02-24T16:47:23.541Z,99572.69
2023-02-24T16:49:50.531Z,99573.78
2023-02-24T16:52:19.231Z,99580.50
2023-02-24T16:54:45.999Z,99573.03
2023-02-24T16:57:12.381Z,99581.19
2023-02-24T16:59:38.756Z,99576.84
2023-02-24T17:02:05.252Z,99577.09
2023-02-24T17:04:32.028Z,99570.09
2023-02-24T17:06:58.533Z,99577.56
2023-02-24T17:09:25.775Z,99573.50
2023-02-24T17:11:52.137Z,99572.13
2023-02-24T17:14:20.060Z,99575.78
2023-02-24T17:16:47.110Z,99563.19
2023-02-24T17:19:13.864Z,99568.19
2023-02-24T17:21:42.969Z,99578.31
2023-02-24T17:24:14.469Z,99570.41
2023-02-24T17:26:40.834Z,99575.13
2023-02-24T17:29:07.357Z,99579.06
2023-02-24T17:31:34.747Z,99580.13
2023-02-24T17:34:01.852Z,99575.66
2023-02-24T17:36:28.558Z,99593.94
2023-02-24T17:38:56.152Z,99588.97
2023-02-24T17:41:24.440Z,99595.41
2023-02-24T17:43:51.729Z,99591.66
2023-02-24T17:46:18.554Z,99593.34
2023-02-24T17:48:44.978Z,99605.06
2023-02-24T17:51:15.930Z,99599.16
2023-02-24T17:53:42.499Z,99604.94
2023-02-24T17:56:09.351Z,99609.94
2023-02-24T17:58:36.398Z,99612.41
2023-02-24T18:01:05.431Z,99615.72
2023-02-24T18:03:33.548Z,99617.06
2023-02-24T18:06:05.027Z,99619.38
2023-02-24T18:08:33.178Z,99623.44
2023-02-24T18:10:59.812Z,99619.78
2023-02-24T18:13:27.188Z,99619.53
2023-02-24T18:15:53.724Z,99617.19
2023-02-24T18:18:20.163Z,99623.09
2023-02-24T18:20:46.539Z,99621.69
2023-02-24T18:23:13.426Z,99622.34
2023-02-24T18:25:39.855Z,99635.25
2023-02-24T18:28:06.275Z,99641.22
2023-02-24T18:30:32.720Z,99633.22
2023-02-24T18:32:59.353Z,99645.16
2023-02-24T18:35:25.915Z,99640.56
2023-02-24T18:37:58.133Z,99645.09
2023-02-24T18:40:24.959Z,99657.13
2023-02-24T18:42:51.749Z,99645.34
2023-02-24T18:45:18.915Z,99642.25
2023-02-24T18:47:46.226Z,99649.31
2023-02-24T18:50:14.091Z,99649.31
2023-02-24T18:52:41.106Z,99645.75
2023-02-24T18:55:08.005Z,99640.44
2023-02-24T18:57:34.428Z,99647.25
2023-02-24T19:00:00.936Z,99640.34
2023-02-24T19:02:27.554Z,99648.31
2023-02-24T19:04:53.941Z,99659.41
2023-02-24T19:07:20.304Z,99664.78
2023-02-24T19:09:50.464Z,99656.63
2023-02-24T19:12:18.044Z,99649.88
2023-02-24T19:14:44.771Z,99654.72
2023-02-24T19:17:11.278Z,99661.16
2023-02-24T19:19:38.796Z,99670.63
2023-02-24T19:22:05.181Z,99658.22
2023-02-24T19:24:31.624Z,99658.22
2023-02-24T19:26:58.036Z,99644.66
2023-02-24T19:29:26.412Z,99641.31
2023-02-24T19:31:57.505Z,99650.00
2023-02-24T19:34:24.101Z,99655.78
2023-02-24T19:36:50.533Z,99656.03
2023-02-24T19:39:17.238Z,99669.06
2023-02-24T19:41:44.057Z,99684.31
2023-02-24T19:44:10.858Z,99689.84
2023-02-24T19:46:37.748Z,99692.41
2023-02-24T19:49:04.758Z,99695.56
2023-02-24T19:51:31.294Z,99693.16
2023-02-24T19:54:00.365Z,99685.31
2023-02-24T19:56:29.717Z,99702.38
2023-02-24T19:58:57.818Z,99697.78
2023-02-24T20:01:24.995Z,99706.22
2023-02-24T20:03:54.140Z,99698.53
2023-02-24T20:06:25.006Z,99705.69
2023-02-24T20:08:52.484Z,99699.78
2023-02-24T20:11:18.953Z,99705.16
2023-02-24T20:13:45.563Z,99688.53
2023-02-24T20:16:14.888Z,99695.19
2023-02-24T20:18:42.022Z,99690.56
2023-02-24T20:21:10.824Z,99709.94
2023-02-24T20:23:38.116Z,99708.38
2023-02-24T20:26:05.162Z,99711.06
2023-02-24T20:28:31.530Z,99713.38
2023-02-24T20:30:59.096Z,99711.19
2023-02-24T20:33:26.085Z,99708.25
2023-02-24T20:35:52.496Z,99713.34
2023-02-24T20:38:18.907Z,99709.91
2023-02-24T20:40:45.333Z,99724.06
2023-02-24T20:43:11.710Z,99726.00
2023-02-24T20:45:38.676Z,99731.00
2023-02-24T20:48:06.546Z,99730.75
2023-02-24T20:50:33.901Z,99724.88
2023-02-24T20:53:00.271Z,99726.09
2023-02-24T20:55:27.104Z,99727.63
2023-02-24T20:57:53.484Z,99729.97
2023-02-24T21:00:20.116Z,99720.78
2023-02-24T21:02:46.642Z,99716.41
2023-02-24T21:05:21.967Z,99720.78
2023-02-24T21:07:49.838Z,99711.81
2023-02-24T21:10:17.114Z,99704.91
2023-02-24T21:12:43.496Z,99715.25
2023-02-24T21:15:12.143Z,99716.47
2023-02-24T21:17:39.419Z,99720.00
2023-02-24T21:20:07.315Z,99723.06
2023-02-24T21:22:33.733Z,99723.81
2023-02-24T21:25:00.169Z,99731.00
2023-02-24T21:27:26.612Z,99733.56
2023-02-24T21:29:53.314Z,99727.00
2023-02-24T21:32:19.935Z,99725.56
2023-02-24T21:34:46.493Z,99724.28
2023-02-24T21:37:12.868Z,99731.16
2023-02-24T21:39:39.228Z,99736.31
2023-02-24T21:42:07.297Z,99723.75
2023-02-24T21:44:33.672Z,99731.19
2023-02-24T21:47:00.129Z,99734.25
2023-02-24T21:49:26.511Z,99732.25
2023-02-24T21:51:55.054Z,99734.56
2023-02-24T21:54:21.895Z,99735.31
2023-02-24T21:56:48.274Z,99734.06
2023-02-24T21:59:14.651Z,99718.78
2023-02-24T22:01:44.346Z,99724.56
2023-02-24T22:04:16.104Z,99719.34
2023-02-24T22:06:44.445Z,99719.97
2023-02-24T22:09:11.918Z,99726.06
2023-02-24T22:11:40.736Z,99731.88
2023-02-24T22:14:09.000Z,99725.59
2023-02-24T22:16:35.514Z,99730.56
2023-02-24T22:19:02.012Z,99736.50
2023-02-24T22:21:29.404Z,99736.13
2023-02-24T22:23:57.998Z,99735.09
2023-02-24T22:26:25.464Z,99732.69
2023-02-24T22:28:52.201Z,99729.53
2023-02-24T22:31:21.240Z,99731.19
2023-02-24T22:33:48.808Z,99734.19
2023-02-24T22:36:17.123Z,99736.25
2023-02-24T22:38:45.584Z,99738.75
2023-02-24T22:41:17.350Z,99742.19
2023-02-24T22:43:44.226Z,99746.97
2023-02-24T22:46:13.380Z,99749.66
2023-02-24T22:48:39.939Z,99746.03
2023-02-24T22:51:07.755Z,99747.41
2023-02-24T22:53:36.071Z,99747.22
2023-02-24T22:56:02.461Z,99752.38
2023-02-24T22:58:28.854Z,99757.75
2023-02-24T23:00:55.424Z,99762.16
2023-02-24T23:03:25.098Z,99766.50
2023-02-24T23:06:06.867Z,99765.66
2023-02-24T23:08:35.276Z,99765.47
2023-02-24T23:11:18.231Z,99761.00
2023-02-24T23:13:46.844Z,99762.31
2023-02-24T23:16:16.822Z,99773.97
2023-02-24T23:18:50.652Z,99775.66
2023-02-24T23:21:19.686Z,99778.53
2023-02-24T23:23:46.088Z,99780.03
2023-02-24T23:26:12.502Z,99781.31
2023-02-24T23:28:39.449Z,99790.34
2023-02-24T23:31:06.169Z,99784.59
2023-02-24T23:33:32.804Z,99793.31
2023-02-24T23:36:06.777Z,99792.06
2023-02-24T23:38:33.999Z,99800.00
2023-02-24T23:41:00.858Z,99794.50
2023-02-24T23:43:27.277Z,99792.03
2023-02-24T23:45:53.758Z,99796.88
2023-02-24T23:48:20.717Z,99798.50
2023-02-24T23:50:47.154Z,99795.38
2023-02-24T23:53:13.519Z,99793.91
2023-02-24T23:55:40.708Z,99795.06
2023-02-24T23:58:07.604Z,99799.44
